TVF19TV LDSP-LFPO
Flight info
| Callsign | TVF19TV |
|---|---|
| Flight time | N/A |
| Altitude | 38000 |
| Route | ZDA DCT EBITA DCT LABIN DCT OTKEK DCT VAKON DCT SRN DCT INVOP DCT CERVI DCT MOLUS DCT UNKIR DCT DJL |
| Aircraft | A20N/M-SDE2E3FGHIRWXY/LB1 |
Departure
| Time | 2026-04-28 16:05 |
|---|---|
| Airport | Split Saint Jerome Airport (LDSP) |
Arrival
| Time | N/A |
|---|---|
| Airport | Paris-Orly Airport (LFPO) |
| Time | Latitude | Longitude | Altitude | Speed | Heading |
|---|---|---|---|---|---|
| 2026-04-28 15:07 | 43.53505 | 16.29778 | 61 ft | 0 kts | 101° |
| 2026-04-28 15:59 | 43.53505 | 16.29779 | 68 ft | 1 kts | 102° |
| 2026-04-28 15:59 | 43.53501 | 16.29781 | 68 ft | 0 kts | 144° |
| 2026-04-28 16:00 | 43.53497 | 16.29779 | 65 ft | 0 kts | 182° |
| 2026-04-28 16:00 | 43.53496 | 16.29774 | 65 ft | 0 kts | 223° |
| 2026-04-28 16:00 | 43.53491 | 16.29753 | 65 ft | 6 kts | 256° |
| 2026-04-28 16:00 | 43.53525 | 16.29686 | 64 ft | 12 kts | 321° |
| 2026-04-28 16:01 | 43.53601 | 16.29607 | 63 ft | 11 kts | 323° |
| 2026-04-28 16:01 | 43.53664 | 16.29623 | 62 ft | 11 kts | 51° |
| 2026-04-28 16:01 | 43.53719 | 16.29723 | 63 ft | 15 kts | 53° |
| 2026-04-28 16:01 | 43.53788 | 16.29847 | 65 ft | 18 kts | 52° |
| 2026-04-28 16:02 | 43.53867 | 16.29991 | 68 ft | 20 kts | 52° |
| 2026-04-28 16:02 | 43.53985 | 16.30087 | 68 ft | 20 kts | 14° |
| 2026-04-28 16:02 | 43.54103 | 16.30176 | 70 ft | 20 kts | 42° |
| 2026-04-28 16:02 | 43.54201 | 16.30345 | 59 ft | 25 kts | 52° |
| 2026-04-28 16:03 | 43.54318 | 16.30556 | 56 ft | 30 kts | 52° |
| 2026-04-28 16:03 | 43.54445 | 16.30785 | 59 ft | 30 kts | 52° |
| 2026-04-28 16:03 | 43.54545 | 16.30972 | 58 ft | 15 kts | 65° |
| 2026-04-28 16:03 | 43.54570 | 16.31054 | 57 ft | 2 kts | 1° |
| 2026-04-28 16:04 | 43.54578 | 16.31038 | 57 ft | 2 kts | 287° |
| 2026-04-28 16:04 | 43.54569 | 16.31005 | 62 ft | 6 kts | 243° |
| 2026-04-28 16:04 | 43.54536 | 16.30948 | 61 ft | 10 kts | 231° |
| 2026-04-28 16:04 | 43.54503 | 16.30892 | 58 ft | 13 kts | 232° |
| 2026-04-28 16:05 | 43.54344 | 16.30605 | 56 ft | 67 kts | 233° |
| 2026-04-28 16:05 | 43.53931 | 16.29861 | 73 ft | 125 kts | 232° |
| 2026-04-28 16:05 | 43.53349 | 16.28810 | 355 ft | 143 kts | 233° |
| 2026-04-28 16:05 | 43.52726 | 16.27710 | 868 ft | 148 kts | 230° |
| 2026-04-28 16:06 | 43.52053 | 16.26633 | 1452 ft | 149 kts | 229° |
| 2026-04-28 16:06 | 43.51363 | 16.25538 | 1948 ft | 158 kts | 229° |
| 2026-04-28 16:06 | 43.50608 | 16.24315 | 2341 ft | 176 kts | 230° |
| 2026-04-28 16:06 | 43.49782 | 16.22946 | 2793 ft | 196 kts | 230° |
| 2026-04-28 16:07 | 43.48859 | 16.21401 | 3269 ft | 221 kts | 231° |
| 2026-04-28 16:07 | 43.47840 | 16.19688 | 3910 ft | 241 kts | 231° |
| 2026-04-28 16:07 | 43.46245 | 16.15443 | 5582 ft | 261 kts | 268° |
| 2026-04-28 16:08 | 43.46593 | 16.12993 | 6555 ft | 265 kts | 296° |
| 2026-04-28 16:08 | 43.47722 | 16.11041 | 7487 ft | 269 kts | 321° |
| 2026-04-28 16:08 | 43.49223 | 16.09470 | 8436 ft | 273 kts | 324° |
| 2026-04-28 16:09 | 43.52352 | 16.06372 | 10305 ft | 280 kts | 324° |
| 2026-04-28 16:09 | 43.53935 | 16.04770 | 11189 ft | 285 kts | 323° |
| 2026-04-28 16:09 | 43.55536 | 16.03125 | 12069 ft | 289 kts | 323° |
| 2026-04-28 16:10 | 43.58689 | 15.99405 | 13269 ft | 317 kts | 318° |
| 2026-04-28 16:10 | 43.59805 | 15.98033 | 13447 ft | 332 kts | 318° |
| 2026-04-28 16:10 | 43.63373 | 15.93659 | 14752 ft | 347 kts | 318° |
| 2026-04-28 16:11 | 43.67026 | 15.89175 | 16264 ft | 355 kts | 318° |
| 2026-04-28 16:11 | 43.70755 | 15.84590 | 17672 ft | 363 kts | 318° |
| 2026-04-28 16:12 | 43.74566 | 15.79895 | 19009 ft | 370 kts | 318° |
| 2026-04-28 16:12 | 43.76500 | 15.77510 | 19654 ft | 374 kts | 318° |
| 2026-04-28 16:13 | 43.80392 | 15.72703 | 20886 ft | 381 kts | 318° |
| 2026-04-28 16:13 | 43.82378 | 15.70247 | 21485 ft | 384 kts | 318° |
| 2026-04-28 16:13 | 43.86401 | 15.65265 | 22641 ft | 391 kts | 318° |
| 2026-04-28 16:14 | 43.90497 | 15.60183 | 23715 ft | 399 kts | 318° |
| 2026-04-28 16:14 | 43.94659 | 15.55010 | 24797 ft | 404 kts | 318° |
| 2026-04-28 16:15 | 43.98878 | 15.49754 | 25771 ft | 410 kts | 318° |
| 2026-04-28 16:15 | 44.01011 | 15.47094 | 26231 ft | 413 kts | 318° |
| 2026-04-28 16:15 | 44.03159 | 15.44411 | 26668 ft | 416 kts | 318° |
| 2026-04-28 16:16 | 44.07492 | 15.38991 | 27529 ft | 422 kts | 317° |
| 2026-04-28 16:16 | 44.09545 | 15.36056 | 27932 ft | 424 kts | 310° |
| 2026-04-28 16:17 | 44.13001 | 15.29346 | 28682 ft | 429 kts | 304° |
| 2026-04-28 16:17 | 44.14665 | 15.25953 | 29031 ft | 432 kts | 304° |
| 2026-04-28 16:17 | 44.16363 | 15.22495 | 29385 ft | 434 kts | 304° |
| 2026-04-28 16:17 | 44.18075 | 15.19006 | 29720 ft | 436 kts | 304° |
| 2026-04-28 16:18 | 44.19788 | 15.15507 | 30062 ft | 438 kts | 304° |
| 2026-04-28 16:18 | 44.21509 | 15.11983 | 30408 ft | 440 kts | 304° |
| 2026-04-28 16:18 | 44.23235 | 15.08443 | 30736 ft | 443 kts | 304° |
| 2026-04-28 16:18 | 44.24967 | 15.04884 | 31072 ft | 445 kts | 304° |
| 2026-04-28 16:19 | 44.26703 | 15.01314 | 31450 ft | 445 kts | 304° |
| 2026-04-28 16:19 | 44.28441 | 14.97735 | 31870 ft | 444 kts | 304° |
| 2026-04-28 16:19 | 44.30171 | 14.94169 | 32283 ft | 443 kts | 304° |
| 2026-04-28 16:19 | 44.31899 | 14.90600 | 32676 ft | 442 kts | 304° |
| 2026-04-28 16:20 | 44.33619 | 14.87045 | 33066 ft | 441 kts | 304° |
| 2026-04-28 16:20 | 44.35335 | 14.83493 | 33438 ft | 441 kts | 304° |
| 2026-04-28 16:20 | 44.37047 | 14.79947 | 33797 ft | 440 kts | 304° |
| 2026-04-28 16:20 | 44.38676 | 14.76395 | 34130 ft | 439 kts | 299° |
| 2026-04-28 16:21 | 44.40088 | 14.72613 | 34469 ft | 438 kts | 297° |
| 2026-04-28 16:21 | 44.41477 | 14.68821 | 34788 ft | 438 kts | 297° |
| 2026-04-28 16:21 | 44.42872 | 14.65036 | 35107 ft | 437 kts | 297° |
| 2026-04-28 16:21 | 44.44263 | 14.61263 | 35404 ft | 436 kts | 297° |
| 2026-04-28 16:22 | 44.45655 | 14.57480 | 35702 ft | 436 kts | 297° |
| 2026-04-28 16:22 | 44.47038 | 14.53708 | 35983 ft | 435 kts | 297° |
| 2026-04-28 16:22 | 44.48421 | 14.49932 | 36251 ft | 435 kts | 297° |
| 2026-04-28 16:22 | 44.49798 | 14.46162 | 36492 ft | 435 kts | 297° |
| 2026-04-28 16:23 | 44.51177 | 14.42384 | 36720 ft | 435 kts | 297° |
| 2026-04-28 16:23 | 44.52534 | 14.38658 | 36943 ft | 435 kts | 297° |
| 2026-04-28 16:23 | 44.53906 | 14.34886 | 37159 ft | 435 kts | 297° |
| 2026-04-28 16:23 | 44.55278 | 14.31112 | 37375 ft | 435 kts | 297° |
| 2026-04-28 16:24 | 44.56650 | 14.27332 | 37575 ft | 435 kts | 297° |
| 2026-04-28 16:24 | 44.58021 | 14.23546 | 37772 ft | 435 kts | 297° |
| 2026-04-28 16:24 | 44.59392 | 14.19759 | 37945 ft | 435 kts | 297° |
| 2026-04-28 16:24 | 44.60761 | 14.15970 | 38000 ft | 434 kts | 297° |
| 2026-04-28 16:25 | 44.63485 | 14.08416 | 38000 ft | 433 kts | 297° |
| 2026-04-28 16:25 | 44.66206 | 14.00849 | 38000 ft | 434 kts | 297° |
| 2026-04-28 16:26 | 44.68904 | 13.93327 | 38000 ft | 433 kts | 296° |
| 2026-04-28 16:26 | 44.71611 | 13.85755 | 38000 ft | 433 kts | 296° |
| 2026-04-28 16:27 | 44.74315 | 13.78173 | 38000 ft | 433 kts | 296° |
| 2026-04-28 16:28 | 44.78367 | 13.66773 | 38000 ft | 433 kts | 296° |
| 2026-04-28 16:28 | 44.81058 | 13.59174 | 38001 ft | 433 kts | 296° |
| 2026-04-28 16:29 | 44.85071 | 13.47801 | 38000 ft | 434 kts | 296° |
| 2026-04-28 16:30 | 44.89086 | 13.36377 | 38001 ft | 434 kts | 296° |
| 2026-04-28 16:30 | 44.91763 | 13.28733 | 38000 ft | 434 kts | 296° |
| 2026-04-28 16:31 | 44.94430 | 13.21094 | 38001 ft | 434 kts | 296° |
| 2026-04-28 16:31 | 44.97071 | 13.13492 | 38000 ft | 434 kts | 295° |
| 2026-04-28 16:32 | 44.99164 | 13.05512 | 37999 ft | 433 kts | 285° |
| 2026-04-28 16:32 | 45.01258 | 12.93074 | 37999 ft | 433 kts | 283° |
| 2026-04-28 16:33 | 45.02415 | 12.86182 | 37999 ft | 433 kts | 283° |
| 2026-04-28 16:33 | 45.04016 | 12.76525 | 38000 ft | 433 kts | 283° |
| 2026-04-28 16:34 | 45.05381 | 12.68227 | 38001 ft | 434 kts | 283° |
| 2026-04-28 16:34 | 45.06742 | 12.59909 | 38001 ft | 434 kts | 283° |
| 2026-04-28 16:35 | 45.08097 | 12.51593 | 38001 ft | 434 kts | 283° |
| 2026-04-28 16:35 | 45.09445 | 12.43274 | 38002 ft | 434 kts | 283° |
| 2026-04-28 16:36 | 45.10786 | 12.34954 | 38002 ft | 434 kts | 283° |
| 2026-04-28 16:36 | 45.12123 | 12.26624 | 38002 ft | 434 kts | 283° |
| 2026-04-28 16:37 | 45.13454 | 12.18289 | 38001 ft | 434 kts | 283° |
| 2026-04-28 16:38 | 45.15431 | 12.05826 | 38002 ft | 434 kts | 282° |
| 2026-04-28 16:38 | 45.16746 | 11.97482 | 38001 ft | 434 kts | 282° |
| 2026-04-28 16:39 | 45.18055 | 11.89141 | 38001 ft | 434 kts | 282° |
| 2026-04-28 16:39 | 45.19357 | 11.80796 | 38001 ft | 434 kts | 282° |
| 2026-04-28 16:40 | 45.20655 | 11.72437 | 38000 ft | 434 kts | 282° |
| 2026-04-28 16:40 | 45.21938 | 11.64130 | 38000 ft | 433 kts | 282° |
| 2026-04-28 16:41 | 45.23224 | 11.55760 | 37999 ft | 433 kts | 282° |
| 2026-04-28 16:41 | 45.24504 | 11.47389 | 38000 ft | 433 kts | 282° |
| 2026-04-28 16:42 | 45.25775 | 11.39030 | 37999 ft | 433 kts | 282° |
| 2026-04-28 16:42 | 45.27040 | 11.30663 | 37999 ft | 433 kts | 282° |
| 2026-04-28 16:43 | 45.28301 | 11.22285 | 37999 ft | 433 kts | 282° |
| 2026-04-28 16:43 | 45.29547 | 11.13956 | 37999 ft | 434 kts | 282° |
| 2026-04-28 16:44 | 45.30795 | 11.05573 | 37999 ft | 434 kts | 282° |
| 2026-04-28 16:44 | 45.32037 | 10.97188 | 38000 ft | 434 kts | 282° |
| 2026-04-28 16:45 | 45.33274 | 10.88791 | 37999 ft | 434 kts | 282° |
| 2026-04-28 16:45 | 45.34505 | 10.80386 | 37999 ft | 434 kts | 282° |
| 2026-04-28 16:46 | 45.35723 | 10.72032 | 37998 ft | 434 kts | 282° |
| 2026-04-28 16:46 | 45.36946 | 10.63621 | 37997 ft | 434 kts | 282° |
| 2026-04-28 16:47 | 45.38363 | 10.55278 | 37997 ft | 434 kts | 284° |
| 2026-04-28 16:47 | 45.39839 | 10.46949 | 37998 ft | 434 kts | 284° |
| 2026-04-28 16:48 | 45.41282 | 10.38603 | 37999 ft | 434 kts | 283° |
| 2026-04-28 16:48 | 45.42707 | 10.30252 | 38000 ft | 434 kts | 283° |
| 2026-04-28 16:49 | 45.44117 | 10.21942 | 38001 ft | 434 kts | 283° |
| 2026-04-28 16:49 | 45.45530 | 10.13578 | 38001 ft | 434 kts | 283° |
| 2026-04-28 16:50 | 45.46939 | 10.05198 | 38002 ft | 434 kts | 283° |
| 2026-04-28 16:50 | 45.48350 | 9.96820 | 38002 ft | 434 kts | 284° |
| 2026-04-28 16:51 | 45.49825 | 9.88463 | 38002 ft | 435 kts | 284° |
| 2026-04-28 16:51 | 45.51289 | 9.80152 | 38002 ft | 435 kts | 284° |
| 2026-04-28 16:52 | 45.52748 | 9.71788 | 38001 ft | 435 kts | 284° |
| 2026-04-28 16:52 | 45.54197 | 9.63421 | 38001 ft | 434 kts | 284° |
| 2026-04-28 16:53 | 45.55641 | 9.55044 | 38001 ft | 434 kts | 284° |
| 2026-04-28 16:53 | 45.57079 | 9.46663 | 37999 ft | 434 kts | 283° |
| 2026-04-28 16:54 | 45.58503 | 9.38329 | 37998 ft | 434 kts | 283° |
| 2026-04-28 16:54 | 45.59930 | 9.29931 | 37999 ft | 434 kts | 283° |
| 2026-04-28 16:55 | 45.61348 | 9.21547 | 37998 ft | 434 kts | 283° |
| 2026-04-28 16:55 | 45.62761 | 9.13153 | 37997 ft | 434 kts | 283° |
| 2026-04-28 16:56 | 45.64168 | 9.04757 | 37996 ft | 434 kts | 283° |
| 2026-04-28 16:56 | 45.65617 | 8.96427 | 37996 ft | 434 kts | 285° |
| 2026-04-28 16:57 | 45.67187 | 8.88077 | 37996 ft | 435 kts | 285° |
| 2026-04-28 16:57 | 45.68738 | 8.79719 | 37996 ft | 435 kts | 284° |
| 2026-04-28 16:58 | 45.70274 | 8.71335 | 37996 ft | 435 kts | 284° |
| 2026-04-28 16:58 | 45.71791 | 8.63000 | 38000 ft | 435 kts | 284° |
| 2026-04-28 16:59 | 45.73310 | 8.54616 | 37999 ft | 435 kts | 284° |
| 2026-04-28 16:59 | 45.74826 | 8.46214 | 37995 ft | 435 kts | 284° |
| 2026-04-28 17:00 | 45.76334 | 8.37815 | 37996 ft | 436 kts | 284° |
| 2026-04-28 17:00 | 45.77588 | 8.30804 | 37999 ft | 439 kts | 284° |
| 2026-04-28 17:01 | 45.79094 | 8.22342 | 38000 ft | 438 kts | 284° |
| 2026-04-28 17:01 | 45.81124 | 8.12548 | 38001 ft | 440 kts | 292° |
| 2026-04-28 17:02 | 45.83399 | 8.04385 | 38000 ft | 444 kts | 291° |
| 2026-04-28 17:02 | 45.85302 | 7.97477 | 37999 ft | 450 kts | 291° |
| 2026-04-28 17:03 | 45.88722 | 7.85001 | 38000 ft | 451 kts | 291° |
| 2026-04-28 17:03 | 45.91024 | 7.76574 | 38001 ft | 456 kts | 291° |
| 2026-04-28 17:04 | 45.93981 | 7.68523 | 38000 ft | 457 kts | 303° |
| 2026-04-28 17:04 | 45.95708 | 7.64710 | 37999 ft | 451 kts | 303° |
| 2026-04-28 17:05 | 46.00899 | 7.53369 | 38000 ft | 457 kts | 303° |
| 2026-04-28 17:06 | 46.06101 | 7.42065 | 38001 ft | 451 kts | 303° |
| 2026-04-28 17:06 | 46.11277 | 7.30772 | 37999 ft | 449 kts | 303° |
| 2026-04-28 17:07 | 46.14704 | 7.23269 | 37999 ft | 445 kts | 303° |
| 2026-04-28 17:07 | 46.18051 | 7.15921 | 37998 ft | 435 kts | 303° |
| 2026-04-28 17:08 | 46.21410 | 7.08528 | 38002 ft | 445 kts | 303° |
| 2026-04-28 17:08 | 46.24803 | 7.01040 | 37999 ft | 438 kts | 303° |
| 2026-04-28 17:09 | 46.28104 | 6.93736 | 38000 ft | 435 kts | 303° |
| 2026-04-28 17:09 | 46.31431 | 6.86355 | 38000 ft | 441 kts | 303° |
| 2026-04-28 17:10 | 46.34787 | 6.78890 | 38001 ft | 447 kts | 303° |
| 2026-04-28 17:10 | 46.38154 | 6.71380 | 38000 ft | 444 kts | 303° |
| 2026-04-28 17:11 | 46.41480 | 6.63942 | 38000 ft | 434 kts | 303° |
| 2026-04-28 17:11 | 46.44766 | 6.56574 | 38000 ft | 436 kts | 303° |
| 2026-04-28 17:12 | 46.48055 | 6.49179 | 38000 ft | 436 kts | 303° |
| 2026-04-28 17:12 | 46.51320 | 6.41820 | 38000 ft | 437 kts | 303° |
| 2026-04-28 17:13 | 46.54612 | 6.34378 | 38002 ft | 439 kts | 302° |
| 2026-04-28 17:13 | 46.57922 | 6.26878 | 37984 ft | 441 kts | 302° |
| 2026-04-28 17:14 | 46.61234 | 6.19350 | 38000 ft | 441 kts | 302° |
| 2026-04-28 17:14 | 46.64543 | 6.11811 | 38000 ft | 442 kts | 302° |
| 2026-04-28 17:15 | 46.67817 | 6.04331 | 38000 ft | 440 kts | 302° |
| 2026-04-28 17:15 | 46.71102 | 5.96804 | 38001 ft | 439 kts | 302° |
| 2026-04-28 17:16 | 46.74362 | 5.89313 | 37997 ft | 436 kts | 302° |
| 2026-04-28 17:16 | 46.77604 | 5.81846 | 37984 ft | 435 kts | 302° |
| 2026-04-28 17:17 | 46.80923 | 5.74482 | 38002 ft | 435 kts | 307° |
| 2026-04-28 17:17 | 46.85011 | 5.67997 | 38000 ft | 436 kts | 317° |
| 2026-04-28 17:18 | 46.89432 | 5.61950 | 38000 ft | 435 kts | 316° |
| 2026-04-28 17:18 | 46.93844 | 5.55872 | 38000 ft | 435 kts | 316° |
| 2026-04-28 17:19 | 46.98251 | 5.49800 | 38000 ft | 435 kts | 316° |
| 2026-04-28 17:19 | 47.02655 | 5.43721 | 38001 ft | 435 kts | 316° |
| 2026-04-28 17:20 | 47.06320 | 5.38652 | 38001 ft | 435 kts | 316° |
| 2026-04-28 17:20 | 47.09264 | 5.34573 | 37762 ft | 435 kts | 316° |
| 2026-04-28 17:20 | 47.11465 | 5.31520 | 37512 ft | 434 kts | 316° |
| 2026-04-28 17:21 | 47.13624 | 5.28520 | 37266 ft | 433 kts | 316° |
| 2026-04-28 17:21 | 47.15814 | 5.25475 | 37017 ft | 433 kts | 316° |
| 2026-04-28 17:21 | 47.18004 | 5.22424 | 36768 ft | 434 kts | 316° |
| 2026-04-28 17:22 | 47.22394 | 5.16300 | 35824 ft | 437 kts | 316° |
| 2026-04-28 17:22 | 47.24619 | 5.13192 | 34947 ft | 443 kts | 316° |
| 2026-04-28 17:22 | 47.26853 | 5.10063 | 34196 ft | 444 kts | 315° |
| 2026-04-28 17:23 | 47.31141 | 5.03485 | 32574 ft | 446 kts | 314° |
| 2026-04-28 17:23 | 47.33292 | 5.00186 | 31762 ft | 447 kts | 314° |
| 2026-04-28 17:23 | 47.35423 | 4.96915 | 31031 ft | 446 kts | 314° |
| 2026-04-28 17:23 | 47.37555 | 4.93634 | 30476 ft | 440 kts | 314° |
| 2026-04-28 17:24 | 47.39659 | 4.90390 | 29872 ft | 436 kts | 314° |
| 2026-04-28 17:24 | 47.41743 | 4.87169 | 29278 ft | 431 kts | 314° |
| 2026-04-28 17:24 | 47.43832 | 4.83937 | 28677 ft | 427 kts | 314° |
| 2026-04-28 17:24 | 47.45849 | 4.80812 | 28096 ft | 423 kts | 314° |
| 2026-04-28 17:25 | 47.47872 | 4.77674 | 27514 ft | 419 kts | 313° |
| 2026-04-28 17:25 | 47.51849 | 4.71492 | 26616 ft | 411 kts | 313° |
| 2026-04-28 17:25 | 47.53845 | 4.68386 | 26294 ft | 418 kts | 313° |
| 2026-04-28 17:26 | 47.55843 | 4.65273 | 25955 ft | 416 kts | 313° |
| 2026-04-28 17:26 | 47.57824 | 4.62183 | 25618 ft | 411 kts | 313° |
| 2026-04-28 17:26 | 47.59792 | 4.59110 | 25290 ft | 409 kts | 313° |
| 2026-04-28 17:26 | 47.61743 | 4.56060 | 24962 ft | 407 kts | 313° |
| 2026-04-28 17:27 | 47.63690 | 4.53011 | 24627 ft | 406 kts | 313° |
| 2026-04-28 17:27 | 47.65604 | 4.50012 | 24300 ft | 404 kts | 313° |
| 2026-04-28 17:27 | 47.67527 | 4.46995 | 23983 ft | 401 kts | 313° |
| 2026-04-28 17:27 | 47.69437 | 4.43994 | 23660 ft | 399 kts | 313° |
| 2026-04-28 17:28 | 47.71342 | 4.40999 | 23339 ft | 398 kts | 313° |
| 2026-04-28 17:28 | 47.75115 | 4.35054 | 22699 ft | 393 kts | 313° |
| 2026-04-28 17:28 | 47.76986 | 4.32102 | 22382 ft | 391 kts | 313° |
| 2026-04-28 17:29 | 47.78851 | 4.29156 | 22067 ft | 389 kts | 313° |
| 2026-04-28 17:29 | 47.80705 | 4.26225 | 21750 ft | 388 kts | 313° |
| 2026-04-28 17:29 | 47.82549 | 4.23305 | 21438 ft | 386 kts | 313° |
| 2026-04-28 17:30 | 47.86205 | 4.17492 | 20817 ft | 382 kts | 311° |
| 2026-04-28 17:30 | 47.88786 | 4.10735 | 20208 ft | 379 kts | 287° |
| 2026-04-28 17:30 | 47.89391 | 4.06924 | 19904 ft | 377 kts | 282° |
| 2026-04-28 17:31 | 47.89942 | 4.03092 | 19597 ft | 376 kts | 282° |
| 2026-04-28 17:31 | 47.91047 | 3.95522 | 18997 ft | 372 kts | 282° |